createdAt,value
2024-02-02T00:07:50.608Z,99.99
2024-02-02T00:22:52.674Z,99.99
2024-02-02T00:37:51.292Z,99.99
2024-02-02T00:52:52.254Z,99.99
2024-02-02T01:07:52.129Z,99.99
2024-02-02T01:22:52.490Z,99.99
2024-02-02T01:37:52.884Z,99.99
2024-02-02T01:52:53.227Z,99.99
2024-02-02T02:07:53.509Z,99.99
2024-02-02T02:22:54.404Z,99.99
2024-02-02T02:37:54.815Z,99.99
2024-02-02T02:52:55.144Z,99.99
2024-02-02T03:07:55.486Z,99.99
2024-02-02T03:22:55.890Z,99.99
2024-02-02T03:37:56.145Z,99.99
2024-02-02T03:52:57.044Z,99.99
2024-02-02T04:07:57.963Z,99.99
2024-02-02T04:22:58.216Z,99.99
2024-02-02T04:37:58.905Z,99.99
2024-02-02T04:52:59.763Z,99.99
2024-02-02T05:08:00.664Z,99.99
2024-02-02T05:23:00.861Z,99.99
2024-02-02T05:38:01.627Z,99.99
2024-02-02T05:53:02.366Z,99.99
2024-02-02T06:08:02.841Z,99.99
2024-02-02T06:23:04.294Z,99.99
2024-02-02T06:38:03.994Z,99.99
2024-02-02T06:53:04.437Z,99.99
2024-02-02T07:08:05.002Z,99.99
2024-02-02T07:23:05.593Z,99.99
2024-02-02T07:38:06.226Z,99.99
2024-02-02T07:53:06.829Z,99.99
2024-02-02T08:08:07.575Z,99.99
2024-02-02T08:23:08.266Z,99.99
2024-02-02T08:38:08.834Z,99.99
2024-02-02T08:53:09.393Z,99.99
2024-02-02T09:08:09.969Z,99.07
2024-02-02T09:23:10.642Z,98.09
2024-02-02T09:38:11.440Z,97.84
2024-02-02T09:53:11.499Z,97.59
2024-02-02T10:08:12.132Z,96.61
2024-02-02T10:23:12.553Z,96.09
2024-02-02T10:38:12.972Z,95.99
2024-02-02T10:53:13.579Z,94.44
2024-02-02T11:08:14.115Z,97.07
2024-02-02T11:23:14.708Z,96.97
2024-02-02T11:38:15.225Z,95.78
2024-02-02T11:53:15.652Z,93.63
2024-02-02T12:08:16.696Z,92.40
2024-02-02T12:23:17.128Z,88.49
2024-02-02T12:38:18.045Z,88.80
2024-02-02T12:53:18.458Z,88.04
2024-02-02T13:08:18.961Z,87.34
2024-02-02T13:23:20.042Z,85.59
2024-02-02T13:38:20.373Z,84.45
2024-02-02T13:53:20.916Z,85.17
2024-02-02T14:08:21.446Z,84.52
2024-02-02T14:23:21.880Z,83.39
2024-02-02T14:38:22.216Z,83.18
2024-02-02T14:53:22.630Z,83.28
2024-02-02T15:08:23.049Z,82.67
2024-02-02T15:23:24.249Z,81.49
2024-02-02T15:38:24.776Z,80.67
2024-02-02T15:53:25.203Z,80.57
2024-02-02T16:08:25.719Z,81.12
2024-02-02T16:23:26.173Z,79.79
2024-02-02T16:38:26.792Z,79.37
2024-02-02T16:53:27.356Z,77.51
2024-02-02T17:08:27.859Z,76.04
2024-02-02T17:23:28.398Z,75.87
2024-02-02T17:38:29.030Z,76.46
2024-02-02T17:53:29.530Z,74.33
2024-02-02T18:08:30.369Z,74.02
2024-02-02T18:23:30.935Z,73.95
2024-02-02T18:38:31.627Z,74.33
2024-02-02T18:53:32.365Z,74.46
2024-02-02T19:08:33.077Z,72.19
2024-02-02T19:23:33.824Z,70.89
2024-02-02T19:38:34.639Z,69.75
2024-02-02T19:53:35.347Z,68.93
2024-02-02T20:08:36.058Z,70.20
2024-02-02T20:23:36.846Z,71.64
2024-02-02T20:38:37.588Z,70.65
2024-02-02T20:53:38.103Z,71.99
2024-02-02T21:08:38.891Z,71.68
2024-02-02T21:23:39.616Z,71.92
2024-02-02T21:38:40.386Z,71.92
2024-02-02T21:53:41.164Z,70.89
2024-02-02T22:08:41.960Z,70.92
2024-02-02T22:23:42.851Z,67.27
2024-02-02T22:38:43.085Z,66.04
2024-02-02T22:53:43.824Z,63.77
2024-02-02T23:08:44.583Z,62.53
2024-02-02T23:23:45.702Z,60.98
2024-02-02T23:38:46.078Z,59.41
2024-02-02T23:53:46.328Z,56.98
